Time;durP1;ratioP1;P1;durP2;ratioP2;P2;SDS_P1;SDS_P2;PMS_P1;PMS_P2;Temp;Humidity;BMP_temperature;BMP_pressure;BME280_temperature;BME280_humidity;BME280_pressure;Samples;Min_cycle;Max_cycle;Signal;HPM_P1;HPM_P2
2022/10/21 00:00:37;;;;;;;18.40;11.57;;;14.40;99.90;;;;;;5016196;28;20176;-78
2022/10/21 00:03:03;;;;;;;19.00;11.60;;;14.40;99.90;;;;;;4998556;28;20196;-78
2022/10/21 00:05:28;;;;;;;17.33;10.70;;;14.40;99.90;;;;;;5015924;28;20203;-78
2022/10/21 00:07:54;;;;;;;19.27;11.03;;;14.40;99.90;;;;;;4998290;28;20264;-78
2022/10/21 00:10:19;;;;;;;18.30;11.67;;;14.40;99.90;;;;;;4998231;28;20230;-79
2022/10/21 00:12:45;;;;;;;19.77;11.03;;;14.40;99.90;;;;;;5016276;28;20207;-78
2022/10/21 00:15:10;;;;;;;13.20;9.70;;;14.30;99.90;;;;;;5016379;28;20200;-78
2022/10/21 00:17:39;;;;;;;18.43;10.87;;;14.40;99.90;;;;;;5015933;28;20539;-78
2022/10/21 00:20:08;;;;;;;15.30;10.47;;;14.40;99.90;;;;;;5016297;28;20176;-78
2022/10/21 00:22:33;;;;;;;26.20;11.13;;;14.40;99.90;;;;;;5015967;28;20292;-78
2022/10/21 00:24:59;;;;;;;17.40;10.57;;;14.30;99.90;;;;;;5016197;28;20185;-78
2022/10/21 00:27:25;;;;;;;16.83;9.97;;;14.40;99.90;;;;;;4998534;28;20188;-78
2022/10/21 00:29:51;;;;;;;14.73;10.27;;;14.40;99.90;;;;;;5015995;28;20555;-78
2022/10/21 00:32:17;;;;;;;20.23;10.17;;;14.30;99.90;;;;;;4998343;28;20204;-78
2022/10/21 00:34:42;;;;;;;14.33;10.70;;;14.30;99.90;;;;;;5015712;28;20200;-78
2022/10/21 00:37:09;;;;;;;13.43;9.63;;;14.30;99.90;;;;;;5016221;28;20177;-78
2022/10/21 00:39:36;;;;;;;11.27;8.60;;;14.30;99.90;;;;;;5016137;28;20735;-78
2022/10/21 00:42:02;;;;;;;11.87;8.83;;;14.30;99.90;;;;;;5016303;28;20659;-79
2022/10/21 00:44:30;;;;;;;13.53;9.73;;;14.30;99.90;;;;;;5017963;28;20524;-78
2022/10/21 00:47:18;;;;;;;19.43;9.33;;;14.30;99.90;;;;;;5019607;28;20181;-79
2022/10/21 00:49:55;;;;;;;16.80;9.33;;;14.30;99.90;;;;;;5020123;28;20181;-78
2022/10/21 00:52:22;;;;;;;11.53;8.70;;;14.30;99.90;;;;;;5015679;28;20197;-79
2022/10/21 00:54:50;;;;;;;11.50;8.30;;;14.30;99.90;;;;;;4997744;28;20204;-79
2022/10/21 00:57:18;;;;;;;9.83;8.23;;;14.30;99.90;;;;;;5015290;28;20576;-78
2022/10/21 00:59:50;;;;;;;12.77;8.77;;;14.30;99.90;;;;;;5014861;28;20180;-79
2022/10/21 01:02:18;;;;;;;22.07;9.43;;;14.30;99.90;;;;;;4997762;28;20199;-79
2022/10/21 01:04:44;;;;;;;12.13;8.47;;;14.30;99.90;;;;;;4996931;28;20540;-79
2022/10/21 01:07:10;;;;;;;9.73;7.77;;;14.20;99.90;;;;;;5015280;28;20180;-79
2022/10/21 01:09:36;;;;;;;11.70;8.37;;;14.30;99.90;;;;;;4997248;28;20181;-79
2022/10/21 01:12:03;;;;;;;13.80;7.93;;;14.20;99.90;;;;;;5015114;28;20263;-79
2022/10/21 01:14:37;;;;;;;13.13;8.70;;;14.20;99.90;;;;;;5015136;28;20600;-79
2022/10/21 01:17:24;;;;;;;8.77;7.53;;;14.20;99.90;;;;;;5015090;28;20591;-79
2022/10/21 01:20:19;;;;;;;14.40;8.47;;;14.20;99.90;;;;;;5014958;28;20157;-78
2022/10/21 01:23:03;;;;;;;12.27;7.97;;;14.10;99.90;;;;;;5014828;28;20203;-79
2022/10/21 01:25:53;;;;;;;11.03;7.83;;;14.10;99.90;;;;;;4996938;28;20176;-79
2022/10/21 01:28:48;;;;;;;9.20;7.17;;;14.10;99.90;;;;;;4997365;28;20634;-79
2022/10/21 01:31:35;;;;;;;18.73;7.90;;;14.10;99.90;;;;;;5014604;28;20172;-79
2022/10/21 01:34:17;;;;;;;16.20;8.27;;;14.10;99.90;;;;;;5014746;28;20180;-78
2022/10/21 01:36:55;;;;;;;10.47;7.63;;;14.10;99.90;;;;;;5015039;28;20157;-79
2022/10/21 01:39:37;;;;;;;14.40;8.07;;;14.00;99.90;;;;;;5014958;28;20566;-78
2022/10/21 01:42:13;;;;;;;11.93;7.93;;;14.00;99.90;;;;;;4997119;28;20188;-79
2022/10/21 01:44:39;;;;;;;12.47;7.77;;;14.00;99.90;;;;;;4996930;28;20650;-79
2022/10/21 01:47:21;;;;;;;10.57;7.20;;;14.00;99.90;;;;;;5014684;28;20169;-79
2022/10/21 01:50:12;;;;;;;10.07;7.40;;;14.00;99.90;;;;;;4997242;28;20179;-78
2022/10/21 01:52:40;;;;;;;14.07;7.80;;;14.00;99.90;;;;;;5014665;28;20192;-78
2022/10/21 01:55:10;;;;;;;13.20;7.77;;;13.90;99.90;;;;;;4996615;28;20319;-79
2022/10/21 01:57:40;;;;;;;12.63;7.60;;;13.90;99.90;;;;;;5014752;28;20150;-79
2022/10/21 02:00:07;;;;;;;14.17;7.13;;;13.90;99.90;;;;;;5014556;28;20169;-79
2022/10/21 02:02:37;;;;;;;14.70;6.80;;;13.90;99.90;;;;;;4996548;28;20193;-79
2022/10/21 02:05:09;;;;;;;8.73;6.73;;;13.80;99.90;;;;;;5014233;28;20275;-78
2022/10/21 02:07:35;;;;;;;11.20;6.97;;;14.00;99.90;;;;;;5014880;28;20157;-79
2022/10/21 02:10:00;;;;;;;8.40;6.83;;;13.80;99.90;;;;;;4998740;28;20630;-79
2022/10/21 02:12:28;;;;;;;10.83;7.17;;;13.80;99.90;;;;;;5000422;28;20682;-79
2022/10/21 02:14:56;;;;;;;9.20;6.20;;;13.80;99.90;;;;;;5018510;28;20185;-79
2022/10/21 02:17:22;;;;;;;12.23;6.23;;;13.80;99.90;;;;;;5001710;28;20177;-79
2022/10/21 02:19:47;;;;;;;12.53;6.37;;;13.80;99.90;;;;;;5001248;28;20180;-79
2022/10/21 02:22:19;;;;;;;10.53;6.13;;;13.80;99.90;;;;;;5000673;28;20201;-78
2022/10/21 02:25:16;;;;;;;9.37;6.03;;;13.80;99.90;;;;;;5018515;28;20253;-79
2022/10/21 02:27:42;;;;;;;8.07;5.80;;;13.80;99.90;;;;;;5018598;28;20157;-79
2022/10/21 02:30:08;;;;;;;8.33;5.50;;;13.80;99.90;;;;;;5018160;28;20180;-78
2022/10/21 02:32:51;;;;;;;7.93;6.00;;;13.80;99.90;;;;;;5018634;28;20585;-79
2022/10/21 02:35:22;;;;;;;9.37;5.60;;;13.70;99.90;;;;;;5000472;28;20567;-79
2022/10/21 02:38:24;;;;;;;8.83;5.60;;;13.70;99.90;;;;;;5018152;28;20164;-79
2022/10/21 02:40:55;;;;;;;7.77;4.90;;;13.70;99.90;;;;;;5017968;28;20275;-79
2022/10/21 02:43:28;;;;;;;7.97;5.30;;;13.70;99.90;;;;;;5018561;28;20189;-78
2022/10/21 02:45:58;;;;;;;7.00;4.67;;;13.70;99.90;;;;;;5018075;28;20180;-79
2022/10/21 02:48:23;;;;;;;6.93;4.83;;;13.70;99.90;;;;;;5000386;28;20165;-79
2022/10/21 02:50:49;;;;;;;8.63;4.87;;;13.70;99.90;;;;;;5018123;28;20180;-79
2022/10/21 02:53:15;;;;;;;6.23;4.40;;;13.70;99.90;;;;;;5017841;28;20192;-79
2022/10/21 02:55:40;;;;;;;8.20;4.97;;;13.70;99.90;;;;;;5000334;28;20197;-78
2022/10/21 02:58:06;;;;;;;5.47;4.00;;;13.70;99.90;;;;;;5000048;28;20176;-79
2022/10/21 03:00:32;;;;;;;7.23;4.27;;;13.70;99.90;;;;;;5017961;28;20204;-78
2022/10/21 03:02:57;;;;;;;5.63;4.33;;;13.70;99.90;;;;;;5018210;28;20563;-79
2022/10/21 03:05:23;;;;;;;10.27;4.00;;;13.70;99.90;;;;;;5000490;28;20643;-79
2022/10/21 03:07:49;;;;;;;6.90;4.00;;;13.70;99.90;;;;;;5017612;28;20184;-78
2022/10/21 03:10:15;;;;;;;8.10;3.77;;;13.70;99.90;;;;;;5017218;28;20177;-79
2022/10/21 03:12:40;;;;;;;7.83;4.30;;;13.70;99.90;;;;;;5016936;28;20205;-78
2022/10/21 03:15:06;;;;;;;7.93;4.23;;;13.70;99.90;;;;;;5008687;28;20689;-79
2022/10/21 03:17:32;;;;;;;11.43;3.90;;;13.70;99.90;;;;;;5037062;28;20179;-79
2022/10/21 03:19:57;;;;;;;7.20;4.07;;;13.80;99.90;;;;;;5019028;28;20168;-79
2022/10/21 03:22:23;;;;;;;8.70;3.63;;;13.70;99.90;;;;;;5035986;28;20658;-79
2022/10/21 03:24:49;;;;;;;4.80;3.43;;;13.80;99.90;;;;;;5017578;28;20199;-79
2022/10/21 03:27:14;;;;;;;6.67;3.60;;;13.70;99.90;;;;;;5037141;28;20172;-79
2022/10/21 03:29:40;;;;;;;8.33;3.53;;;13.70;99.90;;;;;;5019125;28;20176;-79
2022/10/21 03:32:05;;;;;;;4.70;4.00;;;13.70;99.90;;;;;;5019209;28;20250;-79
2022/10/21 03:34:31;;;;;;;7.53;3.80;;;13.70;99.90;;;;;;5033550;28;20631;-79
2022/10/21 03:36:56;;;;;;;4.53;3.47;;;13.70;99.90;;;;;;5017961;28;20230;-79
2022/10/21 03:39:22;;;;;;;5.77;3.67;;;13.70;99.90;;;;;;5036723;28;20184;-78
2022/10/21 03:41:47;;;;;;;8.70;3.97;;;13.70;99.90;;;;;;5036561;28;20237;-79
2022/10/21 03:44:13;;;;;;;5.50;3.80;;;13.70;99.90;;;;;;5017488;28;20176;-78
2022/10/21 03:46:38;;;;;;;4.50;3.40;;;13.70;99.90;;;;;;5036448;28;20171;-78
2022/10/21 03:49:04;;;;;;;6.77;3.30;;;13.70;99.90;;;;;;5036593;28;20176;-79
2022/10/21 03:51:29;;;;;;;6.40;3.60;;;13.70;99.90;;;;;;5036453;28;20172;-78
2022/10/21 03:53:55;;;;;;;4.70;3.77;;;13.70;99.90;;;;;;5031303;28;20200;-79
2022/10/21 03:56:20;;;;;;;4.50;3.50;;;13.70;99.90;;;;;;5016837;28;20224;-79
2022/10/21 03:58:46;;;;;;;5.23;3.60;;;13.70;99.90;;;;;;4999327;28;20185;-79
2022/10/21 04:01:12;;;;;;;5.50;4.23;;;13.90;99.90;;;;;;5016665;28;20204;-79
2022/10/21 04:03:39;;;;;;;7.43;3.50;;;13.70;99.90;;;;;;5016581;28;20705;-79
2022/10/21 04:06:04;;;;;;;4.47;3.30;;;13.60;99.90;;;;;;5036414;28;20246;-78
2022/10/21 04:08:30;;;;;;;7.97;3.10;;;13.60;99.90;;;;;;5013958;28;20651;-80
2022/10/21 04:10:58;;;;;;;5.37;2.83;;;13.60;99.90;;;;;;5008028;28;20185;-79
2022/10/21 04:13:24;;;;;;;5.10;3.30;;;13.60;99.90;;;;;;5007735;28;20251;-79
2022/10/21 04:15:49;;;;;;;4.77;3.70;;;13.60;99.90;;;;;;5009452;28;20613;-79
2022/10/21 04:18:15;;;;;;;5.63;3.50;;;13.60;99.90;;;;;;4995852;28;20262;-78
2022/10/21 04:20:41;;;;;;;5.43;3.50;;;13.70;99.90;;;;;;4995069;28;20181;-78
2022/10/21 04:23:06;;;;;;;3.83;3.20;;;13.70;99.90;;;;;;4994810;28;20208;-78
2022/10/21 04:25:32;;;;;;;6.27;3.30;;;13.70;99.90;;;;;;5024884;28;20275;-78
2022/10/21 04:27:57;;;;;;;6.43;3.13;;;13.70;99.90;;;;;;5015628;28;20226;-78
2022/10/21 04:30:23;;;;;;;8.90;3.27;;;13.70;99.90;;;;;;5034097;28;20176;-78
2022/10/21 04:32:49;;;;;;;4.67;2.50;;;13.70;99.90;;;;;;5033998;28;20196;-78
2022/10/21 04:35:16;;;;;;;5.33;3.30;;;13.70;99.90;;;;;;5034998;28;20230;-78
2022/10/21 04:37:42;;;;;;;4.63;3.37;;;13.60;99.90;;;;;;5036795;28;20577;-78
2022/10/21 04:40:08;;;;;;;8.97;3.17;;;13.70;99.90;;;;;;5009541;28;20206;-80
2022/10/21 04:42:34;;;;;;;10.87;3.27;;;13.80;99.90;;;;;;5036994;28;20203;-80
2022/10/21 04:44:59;;;;;;;6.13;3.60;;;13.80;99.90;;;;;;5035827;28;20191;-80
2022/10/21 04:47:25;;;;;;;6.87;2.93;;;13.80;99.90;;;;;;5036338;28;20222;-79
2022/10/21 04:49:50;;;;;;;6.00;2.90;;;13.80;99.90;;;;;;5036256;28;20184;-78
2022/10/21 04:52:16;;;;;;;5.10;3.00;;;13.80;99.90;;;;;;5015995;28;20211;-78
2022/10/21 04:54:41;;;;;;;5.17;2.57;;;13.80;99.90;;;;;;5014891;28;20262;-78
2022/10/21 04:57:07;;;;;;;4.13;3.10;;;13.90;99.90;;;;;;5015804;28;20192;-78
2022/10/21 04:59:32;;;;;;;3.97;2.57;;;13.90;99.90;;;;;;4996445;28;20186;-78
2022/10/21 05:01:58;;;;;;;3.33;2.83;;;13.90;99.90;;;;;;5013785;28;20196;-78
2022/10/21 05:04:23;;;;;;;7.03;2.57;;;13.90;99.90;;;;;;5012036;28;20182;-79
2022/10/21 05:06:49;;;;;;;4.13;2.80;;;13.90;99.90;;;;;;4996551;28;20180;-77
2022/10/21 05:09:15;;;;;;;4.77;3.03;;;13.90;99.90;;;;;;5014083;28;20179;-78
2022/10/21 05:11:40;;;;;;;5.57;2.93;;;13.90;99.90;;;;;;5012404;28;20586;-78
2022/10/21 05:14:06;;;;;;;4.33;2.90;;;13.90;99.90;;;;;;5013720;28;20180;-78
2022/10/21 05:16:31;;;;;;;4.33;2.97;;;13.90;99.90;;;;;;5013659;28;20205;-77
2022/10/21 05:18:57;;;;;;;4.47;2.80;;;13.90;99.90;;;;;;5013612;28;20191;-78
2022/10/21 05:21:23;;;;;;;5.40;2.63;;;13.90;99.90;;;;;;5013075;28;20181;-78
2022/10/21 05:23:48;;;;;;;4.63;2.90;;;13.90;99.90;;;;;;5012468;28;20801;-78
2022/10/21 05:26:14;;;;;;;3.87;2.27;;;13.90;99.90;;;;;;5013422;28;20200;-78
2022/10/21 05:28:39;;;;;;;3.70;2.77;;;13.90;99.90;;;;;;5012612;28;20231;-78
2022/10/21 05:31:05;;;;;;;3.77;2.27;;;13.90;99.90;;;;;;4995963;28;20181;-78
2022/10/21 05:33:30;;;;;;;6.23;2.67;;;13.80;99.90;;;;;;5013780;28;20200;-78
2022/10/21 05:35:59;;;;;;;3.57;2.40;;;13.80;99.90;;;;;;5013909;28;20200;-77
2022/10/21 05:38:25;;;;;;;4.50;2.30;;;13.80;99.90;;;;;;5013039;28;20549;-78
2022/10/21 05:40:51;;;;;;;4.60;2.50;;;13.80;99.90;;;;;;4998099;28;20196;-79
2022/10/21 05:43:17;;;;;;;4.40;2.47;;;13.80;99.90;;;;;;5017393;28;20192;-79
2022/10/21 05:45:42;;;;;;;4.57;2.70;;;13.80;99.90;;;;;;5019556;28;20180;-79
2022/10/21 05:48:07;;;;;;;2.83;2.50;;;13.80;99.90;;;;;;5018956;28;20212;-79
2022/10/21 05:50:33;;;;;;;7.40;2.73;;;13.80;99.90;;;;;;5019005;28;20260;-79
2022/10/21 05:52:58;;;;;;;7.80;2.30;;;13.80;99.90;;;;;;5001194;28;20682;-79
2022/10/21 05:55:24;;;;;;;5.70;2.33;;;13.80;99.90;;;;;;5019629;28;20258;-79
2022/10/21 05:57:50;;;;;;;4.53;2.50;;;13.80;99.90;;;;;;5040693;28;20192;-79
2022/10/21 06:00:15;;;;;;;4.97;2.60;;;13.80;99.90;;;;;;5033331;28;20192;-79
2022/10/21 06:02:41;;;;;;;5.23;2.67;;;13.70;99.90;;;;;;5019089;28;20593;-79
2022/10/21 06:05:06;;;;;;;4.37;2.53;;;13.70;99.90;;;;;;5018468;28;20183;-79
2022/10/21 06:07:32;;;;;;;2.53;2.13;;;13.70;99.90;;;;;;5032431;28;20263;-80
2022/10/21 06:09:57;;;;;;;5.03;2.50;;;13.60;99.90;;;;;;5009677;28;20181;-81
2022/10/21 06:12:23;;;;;;;4.20;2.53;;;13.70;99.90;;;;;;5014168;28;20201;-78
2022/10/21 06:14:49;;;;;;;4.43;2.43;;;13.70;99.90;;;;;;5016439;28;20193;-79
2022/10/21 06:17:14;;;;;;;4.03;2.80;;;13.70;99.90;;;;;;5015146;28;20174;-79
2022/10/21 06:19:40;;;;;;;4.57;2.43;;;13.60;99.90;;;;;;5016596;28;20180;-80
2022/10/21 06:22:05;;;;;;;4.67;2.97;;;13.60;99.90;;;;;;5016336;28;20196;-79
2022/10/21 06:24:31;;;;;;;3.40;2.57;;;13.60;99.90;;;;;;5015969;28;20180;-79
2022/10/21 06:26:57;;;;;;;4.10;2.30;;;13.60;99.90;;;;;;4998484;28;20663;-79
2022/10/21 06:29:23;;;;;;;9.00;2.30;;;13.60;99.90;;;;;;5016805;28;20169;-79
2022/10/21 06:31:48;;;;;;;7.13;2.77;;;13.60;99.90;;;;;;4999529;28;20204;-79
2022/10/21 06:34:14;;;;;;;6.07;2.70;;;13.60;99.90;;;;;;5016611;28;20181;-79
2022/10/21 06:36:39;;;;;;;4.77;2.40;;;13.60;99.90;;;;;;5016336;28;20235;-80
2022/10/21 06:39:06;;;;;;;5.83;2.83;;;13.60;99.90;;;;;;5013673;28;20272;-79
2022/10/21 06:41:32;;;;;;;5.57;2.50;;;13.60;99.90;;;;;;4998089;28;20192;-79
2022/10/21 06:43:57;;;;;;;5.60;2.17;;;13.60;99.90;;;;;;5014837;28;20187;-79
2022/10/21 06:46:23;;;;;;;5.87;2.27;;;13.70;99.90;;;;;;4999628;28;20263;-79
2022/10/21 06:48:49;;;;;;;3.93;2.23;;;13.70;99.90;;;;;;4995537;28;20193;-80
2022/10/21 06:51:17;;;;;;;3.77;2.17;;;13.70;99.90;;;;;;5012008;28;20247;-79
2022/10/21 06:53:44;;;;;;;5.13;2.60;;;13.70;99.90;;;;;;5009413;28;20177;-79
2022/10/21 06:56:12;;;;;;;5.00;2.30;;;13.80;99.90;;;;;;5007836;28;20202;-79
2022/10/21 06:58:42;;;;;;;8.03;2.20;;;13.80;99.90;;;;;;5010449;28;20231;-79
2022/10/21 07:01:14;;;;;;;4.90;2.60;;;13.80;99.90;;;;;;5000360;28;20208;-79
2022/10/21 07:03:39;;;;;;;3.47;2.43;;;13.80;99.90;;;;;;5016854;28;20189;-79
2022/10/21 07:06:05;;;;;;;3.60;2.50;;;13.80;99.90;;;;;;4982984;28;20182;-79
2022/10/21 07:08:32;;;;;;;6.30;2.17;;;13.90;99.90;;;;;;4983246;28;20590;-79
2022/10/21 07:10:57;;;;;;;2.70;2.00;;;13.90;99.90;;;;;;5000654;28;20177;-79
2022/10/21 07:13:23;;;;;;;5.83;2.43;;;13.90;99.90;;;;;;4982210;28;20208;-79
2022/10/21 07:16:01;;;;;;;3.97;2.50;;;13.90;99.90;;;;;;5000449;28;20227;-79
2022/10/21 07:18:27;;;;;;;4.50;2.63;;;13.90;99.90;;;;;;4999911;28;20261;-79
2022/10/21 07:20:52;;;;;;;4.87;2.23;;;14.00;99.90;;;;;;4987035;28;20205;-79
2022/10/21 07:23:18;;;;;;;4.57;2.63;;;14.00;99.90;;;;;;5010912;28;20255;-79
2022/10/21 07:25:44;;;;;;;4.10;2.63;;;14.00;99.90;;;;;;5010675;28;20193;-79
2022/10/21 07:28:09;;;;;;;2.80;2.20;;;14.00;99.90;;;;;;5005830;28;20660;-79
2022/10/21 07:30:43;;;;;;;3.00;2.17;;;14.10;99.90;;;;;;5005849;28;20192;-79
2022/10/21 07:33:09;;;;;;;4.30;2.20;;;14.10;99.90;;;;;;5011270;28;20556;-79
2022/10/21 07:35:35;;;;;;;7.07;2.43;;;14.10;99.90;;;;;;4992986;28;20205;-79
2022/10/21 07:38:00;;;;;;;6.93;2.63;;;14.10;99.90;;;;;;5004182;28;20232;-79
2022/10/21 07:40:27;;;;;;;7.80;2.43;;;14.10;99.90;;;;;;5001920;28;20248;-79
2022/10/21 07:42:53;;;;;;;4.93;2.40;;;14.20;99.90;;;;;;5001374;28;20236;-79
2022/10/21 07:45:19;;;;;;;3.67;2.40;;;14.20;99.90;;;;;;5001672;28;20166;-79
2022/10/21 07:47:44;;;;;;;4.33;2.40;;;14.20;99.90;;;;;;5001072;28;20552;-78
2022/10/21 07:50:11;;;;;;;3.13;2.10;;;14.30;99.90;;;;;;4983525;28;20177;-79
2022/10/21 07:52:44;;;;;;;3.47;2.40;;;14.30;99.90;;;;;;4983217;28;20197;-79
2022/10/21 07:55:10;;;;;;;5.67;2.57;;;14.40;99.90;;;;;;4983446;28;20560;-79
2022/10/21 07:57:36;;;;;;;5.47;2.60;;;14.40;99.90;;;;;;5001029;28;20644;-79
2022/10/21 08:00:01;;;;;;;6.00;2.60;;;14.40;99.90;;;;;;5001321;28;20173;-79
2022/10/21 08:02:27;;;;;;;11.50;2.80;;;14.50;99.90;;;;;;4984345;28;20221;-79
2022/10/21 08:04:53;;;;;;;4.63;2.73;;;14.50;99.90;;;;;;4984759;28;20555;-79
2022/10/21 08:07:19;;;;;;;5.20;2.50;;;14.60;99.90;;;;;;4983798;28;20624;-79
2022/10/21 08:09:44;;;;;;;4.63;2.30;;;14.60;99.90;;;;;;4983454;28;20205;-79
2022/10/21 08:12:10;;;;;;;3.33;2.10;;;14.60;99.90;;;;;;5001143;28;20662;-79
2022/10/21 08:14:35;;;;;;;5.63;2.57;;;14.70;99.90;;;;;;5002144;28;20178;-79
2022/10/21 08:17:01;;;;;;;5.17;3.03;;;14.70;99.90;;;;;;4985200;28;20181;-79
2022/10/21 08:19:28;;;;;;;7.10;3.00;;;14.70;99.90;;;;;;5002926;28;20174;-79
2022/10/21 08:21:54;;;;;;;4.80;2.83;;;14.80;99.90;;;;;;4985544;28;20193;-80
2022/10/21 08:24:20;;;;;;;5.97;2.57;;;14.80;99.90;;;;;;5006298;28;20174;-80
2022/10/21 08:26:45;;;;;;;4.27;2.50;;;14.90;99.90;;;;;;5006603;28;20169;-80
2022/10/21 08:29:11;;;;;;;3.70;2.60;;;14.80;99.90;;;;;;4993247;28;20199;-80
2022/10/21 08:31:38;;;;;;;4.30;2.50;;;14.90;99.90;;;;;;4984892;28;20197;-80
2022/10/21 08:34:03;;;;;;;7.77;2.73;;;15.00;99.90;;;;;;5001225;28;20174;-80
2022/10/21 08:36:29;;;;;;;6.97;2.70;;;14.90;99.90;;;;;;4983427;28;20209;-80
2022/10/21 08:38:54;;;;;;;5.57;2.50;;;14.90;99.90;;;;;;4983330;28;20192;-80
2022/10/21 08:42:07;;;;;;;4.07;2.47;;;14.90;99.90;;;;;;5000422;28;20158;-80
2022/10/21 08:44:53;;;;;;;5.63;2.83;;;14.90;99.90;;;;;;4941420;28;20177;-80
2022/10/21 08:47:28;;;;;;;4.67;2.80;;;14.90;99.90;;;;;;4983647;28;20162;-80
2022/10/21 08:50:10;;;;;;;5.17;3.80;;;15.00;99.90;;;;;;5001722;28;20153;-80
2022/10/21 08:52:41;;;;;;;3.63;2.80;;;15.00;99.90;;;;;;5001239;28;20190;-80
2022/10/21 08:55:40;;;;;;;5.13;2.50;;;15.00;99.90;;;;;;5000578;28;20185;-80
2022/10/21 08:58:14;;;;;;;5.43;2.80;;;15.00;99.90;;;;;;4986953;28;20249;-79
2022/10/21 09:01:00;;;;;;;6.20;3.30;;;15.00;99.90;;;;;;5001008;28;20572;-79
2022/10/21 09:03:34;;;;;;;8.27;3.87;;;15.00;99.90;;;;;;4961891;28;20209;-80
2022/10/21 09:06:28;;;;;;;7.67;3.47;;;15.00;99.90;;;;;;5001106;28;20172;-80
2022/10/21 09:08:57;;;;;;;8.80;3.00;;;15.10;99.90;;;;;;4982336;28;20236;-78
2022/10/21 09:11:40;;;;;;;3.93;2.90;;;15.10;99.90;;;;;;4994598;28;20535;-78
2022/10/21 09:14:41;;;;;;;4.97;3.40;;;15.10;99.90;;;;;;4994384;28;20178;-78
2022/10/21 09:17:36;;;;;;;6.37;3.50;;;15.10;99.90;;;;;;4994400;28;20181;-78
2022/10/21 09:20:26;;;;;;;7.93;3.53;;;15.10;99.90;;;;;;4993894;28;20212;-78
2022/10/21 09:23:19;;;;;;;7.93;3.27;;;15.10;99.90;;;;;;4977100;28;20193;-78
2022/10/21 09:25:57;;;;;;;6.67;3.10;;;15.10;99.90;;;;;;4977005;28;20231;-78
2022/10/21 09:28:24;;;;;;;8.70;3.63;;;15.20;99.90;;;;;;4994248;28;20743;-78
2022/10/21 09:30:51;;;;;;;7.53;3.40;;;15.20;99.90;;;;;;4976537;28;20269;-77
2022/10/21 09:33:29;;;;;;;8.80;3.63;;;15.20;99.90;;;;;;4993821;28;20245;-78
2022/10/21 09:36:01;;;;;;;8.30;3.30;;;15.30;99.90;;;;;;4994001;28;20189;-78
2022/10/21 09:38:51;;;;;;;11.03;3.47;;;15.30;99.90;;;;;;4994311;28;20181;-77
2022/10/21 09:41:20;;;;;;;7.73;3.77;;;15.30;99.90;;;;;;4993658;28;20165;-77
2022/10/21 09:43:48;;;;;;;6.00;3.40;;;15.40;99.90;;;;;;4976280;28;20178;-77
2022/10/21 09:46:15;;;;;;;5.17;3.90;;;15.40;99.90;;;;;;4993723;28;20260;-77
2022/10/21 09:48:46;;;;;;;4.53;3.23;;;15.40;99.90;;;;;;4976187;28;20174;-77
2022/10/21 09:51:21;;;;;;;7.23;3.13;;;15.40;99.90;;;;;;4993598;28;20247;-77
2022/10/21 09:53:52;;;;;;;9.50;3.70;;;15.40;99.90;;;;;;4999244;28;20530;-78
2022/10/21 09:57:08;;;;;;;7.50;3.30;;;15.40;99.90;;;;;;5033412;28;20199;-77
2022/10/21 09:59:36;;;;;;;7.33;3.20;;;15.40;99.90;;;;;;4974792;28;20275;-77
2022/10/21 10:02:06;;;;;;;6.83;3.07;;;15.40;99.90;;;;;;5015196;28;20219;-77
2022/10/21 10:04:33;;;;;;;5.90;3.20;;;15.40;99.90;;;;;;5005408;28;20200;-77
2022/10/21 10:07:02;;;;;;;7.73;2.83;;;15.40;99.90;;;;;;5013076;28;20585;-77
2022/10/21 10:09:35;;;;;;;5.70;3.10;;;15.40;99.90;;;;;;5013125;28;20266;-78
2022/10/21 10:12:01;;;;;;;7.77;2.97;;;15.40;99.90;;;;;;5013064;28;20184;-78
2022/10/21 10:14:38;;;;;;;3.90;3.00;;;15.40;99.90;;;;;;5019911;28;20183;-77
2022/10/21 10:17:22;;;;;;;4.30;2.73;;;15.40;99.90;;;;;;5032998;28;20172;-77
2022/10/21 10:20:03;;;;;;;4.93;2.50;;;15.40;99.90;;;;;;5032977;28;20213;-77
2022/10/21 10:22:40;;;;;;;4.90;3.00;;;15.40;99.90;;;;;;5032652;28;20192;-77
2022/10/21 10:25:21;;;;;;;5.47;2.70;;;15.40;99.90;;;;;;5026084;28;20174;-79
2022/10/21 10:27:51;;;;;;;5.60;2.97;;;15.40;99.90;;;;;;5006761;28;20172;-77
2022/10/21 10:30:16;;;;;;;5.37;2.77;;;15.40;99.90;;;;;;5014382;28;20214;-78
2022/10/21 10:32:43;;;;;;;4.13;2.70;;;15.40;99.90;;;;;;5036407;28;20233;-77
2022/10/21 10:35:29;;;;;;;5.30;2.87;;;15.40;99.90;;;;;;5021573;28;20205;-78
2022/10/21 10:37:57;;;;;;;5.53;2.53;;;15.40;99.90;;;;;;5016717;28;20195;-77
2022/10/21 10:40:27;;;;;;;3.43;2.40;;;15.40;99.90;;;;;;5016689;28;20558;-78
2022/10/21 10:43:19;;;;;;;3.43;2.53;;;15.40;99.90;;;;;;4999064;28;20189;-77
2022/10/21 10:46:00;;;;;;;5.90;2.37;;;15.40;99.90;;;;;;5015927;28;20200;-77
2022/10/21 10:48:41;;;;;;;5.93;3.00;;;15.40;99.90;;;;;;5037037;28;20235;-77
2022/10/21 10:51:23;;;;;;;6.77;2.73;;;15.40;99.90;;;;;;5018642;28;20194;-78
2022/10/21 10:54:02;;;;;;;4.03;2.60;;;15.30;99.90;;;;;;5017012;28;20268;-78
2022/10/21 10:56:40;;;;;;;2.70;2.40;;;15.40;99.90;;;;;;5036241;28;20192;-77
2022/10/21 10:59:29;;;;;;;3.70;2.60;;;15.40;99.90;;;;;;5036257;28;20152;-78
2022/10/21 11:02:11;;;;;;;5.80;2.53;;;15.50;99.90;;;;;;5036364;28;20250;-78
2022/10/21 11:04:40;;;;;;;6.00;3.67;;;15.50;99.90;;;;;;5034706;28;20176;-78
2022/10/21 11:07:12;;;;;;;4.73;2.57;;;15.50;99.90;;;;;;5036052;28;20710;-78
2022/10/21 11:09:37;;;;;;;8.87;3.47;;;15.50;99.90;;;;;;5036453;28;20172;-77
2022/10/21 11:12:10;;;;;;;5.03;2.93;;;15.50;99.90;;;;;;5016729;28;20192;-78
2022/10/21 11:14:36;;;;;;;4.73;2.77;;;15.60;99.90;;;;;;5036466;28;20160;-77
2022/10/21 11:17:11;;;;;;;4.57;2.53;;;15.60;99.90;;;;;;5017575;28;20188;-78
2022/10/21 11:19:51;;;;;;;5.83;3.00;;;15.60;99.90;;;;;;5018151;28;20317;-78
2022/10/21 11:22:26;;;;;;;4.67;2.80;;;15.60;99.90;;;;;;5034417;28;20288;-78
2022/10/21 11:25:03;;;;;;;5.23;2.87;;;15.70;99.90;;;;;;5034707;28;20198;-77
2022/10/21 11:27:48;;;;;;;4.27;2.87;;;15.70;99.90;;;;;;5018065;28;20219;-78
2022/10/21 11:30:22;;;;;;;6.47;3.57;;;15.90;99.90;;;;;;5018354;28;20205;-78
2022/10/21 11:32:59;;;;;;;5.70;3.10;;;15.90;99.90;;;;;;5034457;28;20586;-77
2022/10/21 11:35:45;;;;;;;7.60;3.10;;;16.00;99.90;;;;;;5015842;28;20208;-78
2022/10/21 11:38:24;;;;;;;4.83;3.20;;;16.10;99.90;;;;;;5035524;28;20171;-77
2022/10/21 11:41:01;;;;;;;7.17;2.77;;;16.20;99.90;;;;;;5035319;28;20233;-77
2022/10/21 11:43:38;;;;;;;10.57;2.90;;;16.20;99.90;;;;;;5015617;28;20204;-79
2022/10/21 11:46:23;;;;;;;3.87;2.40;;;16.30;99.90;;;;;;5014216;28;20647;-78
2022/10/21 11:49:05;;;;;;;4.63;2.30;;;16.40;99.90;;;;;;5015932;28;20165;-77
2022/10/21 11:51:39;;;;;;;4.93;2.23;;;16.40;99.90;;;;;;5017629;28;20165;-79
2022/10/21 11:54:37;;;;;;;7.20;2.43;;;16.50;99.90;;;;;;5017492;28;20196;-79
2022/10/21 11:57:17;;;;;;;4.30;2.30;;;16.60;99.90;;;;;;5013978;28;20239;-79
2022/10/21 12:00:09;;;;;;;5.80;2.20;;;16.60;99.90;;;;;;5001516;28;20184;-78
2022/10/21 12:02:43;;;;;;;7.20;2.17;;;16.70;99.90;;;;;;5001645;28;20204;-79
2022/10/21 12:05:21;;;;;;;5.70;2.20;;;16.70;99.90;;;;;;5018158;28;20231;-78
2022/10/21 12:08:08;;;;;;;5.93;1.97;;;16.80;99.90;;;;;;5019612;28;20529;-79
2022/10/21 12:10:59;;;;;;;10.37;2.37;;;16.80;99.90;;;;;;5019191;28;20196;-79
2022/10/21 12:13:49;;;;;;;3.57;1.90;;;17.00;99.90;;;;;;5025456;28;20189;-79
2022/10/21 12:16:18;;;;;;;3.17;1.90;;;17.10;99.90;;;;;;5024659;28;20208;-79
2022/10/21 12:18:51;;;;;;;3.47;1.87;;;17.20;99.90;;;;;;5030085;28;20244;-78
2022/10/21 12:21:22;;;;;;;3.07;1.70;;;17.30;99.90;;;;;;5037251;28;20164;-78
2022/10/21 12:23:54;;;;;;;3.00;1.60;;;17.40;99.90;;;;;;5035808;28;20635;-79
2022/10/21 12:26:30;;;;;;;4.40;1.80;;;17.30;99.90;;;;;;5036749;28;20200;-79
2022/10/21 12:29:31;;;;;;;2.90;1.37;;;17.50;99.90;;;;;;5037544;28;20168;-79
2022/10/21 12:32:27;;;;;;;1.70;1.20;;;17.60;99.90;;;;;;5019621;28;20207;-79
2022/10/21 12:34:53;;;;;;;6.90;1.70;;;17.60;99.90;;;;;;5025506;28;20204;-79
2022/10/21 12:37:51;;;;;;;4.07;1.50;;;17.60;99.90;;;;;;5017982;28;20165;-79
2022/10/21 12:40:34;;;;;;;1.83;1.10;;;17.70;99.90;;;;;;4932986;28;20212;-79
2022/10/21 12:43:15;;;;;;;1.63;1.00;;;17.70;99.90;;;;;;5017687;28;20186;-79
2022/10/21 12:45:40;;;;;;;4.47;1.37;;;17.80;99.90;;;;;;5015932;28;20692;-79
2022/10/21 12:48:26;;;;;;;5.60;1.40;;;17.80;99.90;;;;;;5037378;28;20177;-79
2022/10/21 12:51:02;;;;;;;1.90;1.30;;;17.90;99.90;;;;;;5019375;28;20172;-79
2022/10/21 12:53:34;;;;;;;2.13;1.33;;;17.90;99.90;;;;;;5036934;28;20195;-79
2022/10/21 12:56:00;;;;;;;2.97;1.30;;;17.90;99.90;;;;;;5016808;28;20555;-79
2022/10/21 12:58:44;;;;;;;2.13;1.40;;;17.90;99.90;;;;;;5017076;28;20185;-79
2022/10/21 13:01:33;;;;;;;1.57;1.17;;;17.90;99.90;;;;;;4999564;28;20169;-79
2022/10/21 13:03:58;;;;;;;3.13;1.37;;;17.90;99.90;;;;;;5000543;28;20994;-78
2022/10/21 13:06:50;;;;;;;3.20;1.30;;;17.90;99.90;;;;;;5036764;28;20172;-79